sensor_id;sensor_type;location;lat;lon;timestamp;P1;durP1;ratioP1;P2;durP2;ratioP2
67372;SDS011;54257;54.496;18.412;2023-03-13T00:01:47;24.90;;;13.20;;
67372;SDS011;54257;54.496;18.412;2023-03-13T00:04:16;31.70;;;14.50;;
67372;SDS011;54257;54.496;18.412;2023-03-13T00:06:43;27.50;;;14.40;;
67372;SDS011;54257;54.496;18.412;2023-03-13T00:09:10;26.30;;;12.40;;
67372;SDS011;54257;54.496;18.412;2023-03-13T00:11:40;23.10;;;13.20;;
67372;SDS011;54257;54.496;18.412;2023-03-13T00:14:08;23.50;;;12.70;;
67372;SDS011;54257;54.496;18.412;2023-03-13T00:16:35;18.80;;;11.00;;
67372;SDS011;54257;54.496;18.412;2023-03-13T00:19:05;22.90;;;11.90;;
67372;SDS011;54257;54.496;18.412;2023-03-13T00:21:34;20.50;;;9.80;;
67372;SDS011;54257;54.496;18.412;2023-03-13T00:24:07;20.00;;;10.30;;
67372;SDS011;54257;54.496;18.412;2023-03-13T00:26:36;18.70;;;9.90;;
67372;SDS011;54257;54.496;18.412;2023-03-13T00:29:04;21.80;;;8.70;;
67372;SDS011;54257;54.496;18.412;2023-03-13T00:31:32;12.70;;;8.20;;
67372;SDS011;54257;54.496;18.412;2023-03-13T00:33:59;16.70;;;8.10;;
67372;SDS011;54257;54.496;18.412;2023-03-13T00:36:29;15.40;;;8.10;;
67372;SDS011;54257;54.496;18.412;2023-03-13T00:38:58;13.40;;;7.90;;
67372;SDS011;54257;54.496;18.412;2023-03-13T00:41:26;17.00;;;8.70;;
67372;SDS011;54257;54.496;18.412;2023-03-13T00:43:55;15.20;;;7.90;;
67372;SDS011;54257;54.496;18.412;2023-03-13T00:46:26;13.60;;;8.80;;
67372;SDS011;54257;54.496;18.412;2023-03-13T00:48:55;16.70;;;8.40;;
67372;SDS011;54257;54.496;18.412;2023-03-13T00:51:23;16.10;;;8.10;;
67372;SDS011;54257;54.496;18.412;2023-03-13T00:53:52;15.40;;;8.70;;
67372;SDS011;54257;54.496;18.412;2023-03-13T00:56:19;13.50;;;8.40;;
67372;SDS011;54257;54.496;18.412;2023-03-13T00:58:48;15.80;;;8.50;;
67372;SDS011;54257;54.496;18.412;2023-03-13T01:01:19;19.50;;;8.30;;
67372;SDS011;54257;54.496;18.412;2023-03-13T01:03:55;17.70;;;8.80;;
67372;SDS011;54257;54.496;18.412;2023-03-13T01:06:25;19.60;;;9.10;;
67372;SDS011;54257;54.496;18.412;2023-03-13T01:08:54;22.50;;;10.30;;
67372;SDS011;54257;54.496;18.412;2023-03-13T01:11:22;23.20;;;10.00;;
67372;SDS011;54257;54.496;18.412;2023-03-13T01:13:54;19.50;;;9.60;;
67372;SDS011;54257;54.496;18.412;2023-03-13T01:18:53;15.30;;;9.00;;
67372;SDS011;54257;54.496;18.412;2023-03-13T01:21:25;17.10;;;7.80;;
67372;SDS011;54257;54.496;18.412;2023-03-13T01:23:52;16.50;;;8.00;;
67372;SDS011;54257;54.496;18.412;2023-03-13T01:26:21;12.50;;;7.60;;
67372;SDS011;54257;54.496;18.412;2023-03-13T01:28:49;12.20;;;7.00;;
67372;SDS011;54257;54.496;18.412;2023-03-13T01:31:18;13.40;;;7.80;;
67372;SDS011;54257;54.496;18.412;2023-03-13T01:33:50;13.20;;;6.60;;
67372;SDS011;54257;54.496;18.412;2023-03-13T01:36:20;11.40;;;6.70;;
67372;SDS011;54257;54.496;18.412;2023-03-13T01:38:51;12.10;;;6.30;;
67372;SDS011;54257;54.496;18.412;2023-03-13T01:41:20;10.60;;;6.90;;
67372;SDS011;54257;54.496;18.412;2023-03-13T01:43:49;12.00;;;6.80;;
67372;SDS011;54257;54.496;18.412;2023-03-13T01:46:22;10.50;;;6.60;;
67372;SDS011;54257;54.496;18.412;2023-03-13T01:51:39;15.90;;;6.70;;
67372;SDS011;54257;54.496;18.412;2023-03-13T01:54:15;11.40;;;6.60;;
67372;SDS011;54257;54.496;18.412;2023-03-13T01:56:55;15.40;;;7.00;;
67372;SDS011;54257;54.496;18.412;2023-03-13T01:59:55;14.90;;;7.90;;
67372;SDS011;54257;54.496;18.412;2023-03-13T02:02:22;9.10;;;6.30;;
67372;SDS011;54257;54.496;18.412;2023-03-13T02:04:58;11.20;;;6.50;;
67372;SDS011;54257;54.496;18.412;2023-03-13T02:07:47;12.10;;;6.70;;
67372;SDS011;54257;54.496;18.412;2023-03-13T02:10:20;10.20;;;6.60;;
67372;SDS011;54257;54.496;18.412;2023-03-13T02:12:51;10.50;;;6.50;;
67372;SDS011;54257;54.496;18.412;2023-03-13T02:15:20;12.80;;;6.30;;
67372;SDS011;54257;54.496;18.412;2023-03-13T02:17:50;9.90;;;6.10;;
67372;SDS011;54257;54.496;18.412;2023-03-13T02:20:18;11.70;;;6.00;;
67372;SDS011;54257;54.496;18.412;2023-03-13T02:23:02;11.90;;;6.00;;
67372;SDS011;54257;54.496;18.412;2023-03-13T02:25:43;10.90;;;6.10;;
67372;SDS011;54257;54.496;18.412;2023-03-13T02:28:15;10.20;;;6.00;;
67372;SDS011;54257;54.496;18.412;2023-03-13T02:30:50;11.50;;;6.60;;
67372;SDS011;54257;54.496;18.412;2023-03-13T02:33:20;9.50;;;5.70;;
67372;SDS011;54257;54.496;18.412;2023-03-13T02:35:51;8.30;;;5.60;;
67372;SDS011;54257;54.496;18.412;2023-03-13T02:38:21;9.30;;;5.70;;
67372;SDS011;54257;54.496;18.412;2023-03-13T02:40:51;10.70;;;5.80;;
67372;SDS011;54257;54.496;18.412;2023-03-13T02:43:20;7.10;;;5.10;;
67372;SDS011;54257;54.496;18.412;2023-03-13T02:46:05;10.60;;;5.40;;
67372;SDS011;54257;54.496;18.412;2023-03-13T02:48:42;12.40;;;6.30;;
67372;SDS011;54257;54.496;18.412;2023-03-13T02:51:16;8.90;;;5.50;;
67372;SDS011;54257;54.496;18.412;2023-03-13T02:53:48;11.40;;;5.50;;
67372;SDS011;54257;54.496;18.412;2023-03-13T02:56:25;7.90;;;4.90;;
67372;SDS011;54257;54.496;18.412;2023-03-13T02:58:55;9.80;;;5.90;;
67372;SDS011;54257;54.496;18.412;2023-03-13T03:01:22;9.80;;;5.80;;
67372;SDS011;54257;54.496;18.412;2023-03-13T03:03:49;9.50;;;5.50;;
67372;SDS011;54257;54.496;18.412;2023-03-13T03:06:16;9.60;;;6.00;;
67372;SDS011;54257;54.496;18.412;2023-03-13T03:08:43;10.50;;;5.40;;
67372;SDS011;54257;54.496;18.412;2023-03-13T03:11:10;14.90;;;6.20;;
67372;SDS011;54257;54.496;18.412;2023-03-13T03:13:38;12.00;;;7.10;;
67372;SDS011;54257;54.496;18.412;2023-03-13T03:16:08;9.10;;;6.10;;
67372;SDS011;54257;54.496;18.412;2023-03-13T03:18:37;9.70;;;6.00;;
67372;SDS011;54257;54.496;18.412;2023-03-13T03:21:05;9.70;;;5.70;;
67372;SDS011;54257;54.496;18.412;2023-03-13T03:23:32;8.90;;;6.00;;
67372;SDS011;54257;54.496;18.412;2023-03-13T03:26:00;11.30;;;5.50;;
67372;SDS011;54257;54.496;18.412;2023-03-13T03:28:28;11.20;;;6.90;;
67372;SDS011;54257;54.496;18.412;2023-03-13T03:30:56;13.90;;;6.30;;
67372;SDS011;54257;54.496;18.412;2023-03-13T03:33:23;12.30;;;6.80;;
67372;SDS011;54257;54.496;18.412;2023-03-13T03:35:50;12.50;;;7.70;;
67372;SDS011;54257;54.496;18.412;2023-03-13T03:38:17;9.90;;;6.70;;
67372;SDS011;54257;54.496;18.412;2023-03-13T03:40:44;13.10;;;7.30;;
67372;SDS011;54257;54.496;18.412;2023-03-13T03:43:11;11.00;;;6.70;;
67372;SDS011;54257;54.496;18.412;2023-03-13T03:45:38;12.40;;;7.50;;
67372;SDS011;54257;54.496;18.412;2023-03-13T03:48:05;12.50;;;7.50;;
67372;SDS011;54257;54.496;18.412;2023-03-13T03:50:31;10.20;;;7.90;;
67372;SDS011;54257;54.496;18.412;2023-03-13T03:52:58;16.00;;;8.50;;
67372;SDS011;54257;54.496;18.412;2023-03-13T03:55:25;15.10;;;8.10;;
67372;SDS011;54257;54.496;18.412;2023-03-13T03:57:55;15.70;;;8.30;;
67372;SDS011;54257;54.496;18.412;2023-03-13T04:00:22;9.60;;;11.60;;
67372;SDS011;54257;54.496;18.412;2023-03-13T04:02:49;13.00;;;8.10;;
67372;SDS011;54257;54.496;18.412;2023-03-13T04:05:16;15.80;;;8.80;;
67372;SDS011;54257;54.496;18.412;2023-03-13T04:07:43;15.50;;;8.70;;
67372;SDS011;54257;54.496;18.412;2023-03-13T04:10:10;16.80;;;9.30;;
67372;SDS011;54257;54.496;18.412;2023-03-13T04:12:40;15.50;;;9.30;;
67372;SDS011;54257;54.496;18.412;2023-03-13T04:15:08;18.30;;;10.90;;
67372;SDS011;54257;54.496;18.412;2023-03-13T04:17:37;14.60;;;9.70;;
67372;SDS011;54257;54.496;18.412;2023-03-13T04:20:05;12.80;;;9.50;;
67372;SDS011;54257;54.496;18.412;2023-03-13T04:22:33;17.70;;;10.20;;
67372;SDS011;54257;54.496;18.412;2023-03-13T04:25:03;16.00;;;9.40;;
67372;SDS011;54257;54.496;18.412;2023-03-13T04:27:31;19.90;;;10.30;;
67372;SDS011;54257;54.496;18.412;2023-03-13T04:29:59;14.20;;;9.50;;
67372;SDS011;54257;54.496;18.412;2023-03-13T04:32:26;18.90;;;10.00;;
67372;SDS011;54257;54.496;18.412;2023-03-13T04:34:52;16.80;;;10.10;;
67372;SDS011;54257;54.496;18.412;2023-03-13T04:37:19;16.00;;;9.40;;
67372;SDS011;54257;54.496;18.412;2023-03-13T04:39:51;17.00;;;10.20;;
67372;SDS011;54257;54.496;18.412;2023-03-13T04:42:18;17.80;;;9.30;;
67372;SDS011;54257;54.496;18.412;2023-03-13T04:44:45;21.40;;;11.30;;
67372;SDS011;54257;54.496;18.412;2023-03-13T04:47:12;18.10;;;10.00;;
67372;SDS011;54257;54.496;18.412;2023-03-13T04:49:39;16.00;;;9.70;;
67372;SDS011;54257;54.496;18.412;2023-03-13T04:52:06;16.30;;;9.50;;
67372;SDS011;54257;54.496;18.412;2023-03-13T04:54:34;18.70;;;10.40;;
67372;SDS011;54257;54.496;18.412;2023-03-13T04:57:09;15.80;;;9.60;;
67372;SDS011;54257;54.496;18.412;2023-03-13T04:59:35;17.60;;;9.50;;
67372;SDS011;54257;54.496;18.412;2023-03-13T05:02:02;18.30;;;10.20;;
67372;SDS011;54257;54.496;18.412;2023-03-13T05:04:29;17.30;;;10.10;;
67372;SDS011;54257;54.496;18.412;2023-03-13T05:06:59;16.90;;;9.90;;
67372;SDS011;54257;54.496;18.412;2023-03-13T05:09:26;15.10;;;9.50;;
67372;SDS011;54257;54.496;18.412;2023-03-13T05:11:53;20.10;;;10.80;;
67372;SDS011;54257;54.496;18.412;2023-03-13T05:14:19;17.00;;;10.20;;
67372;SDS011;54257;54.496;18.412;2023-03-13T05:16:47;18.30;;;10.90;;
67372;SDS011;54257;54.496;18.412;2023-03-13T05:19:14;16.90;;;10.80;;
67372;SDS011;54257;54.496;18.412;2023-03-13T05:21:41;16.70;;;10.50;;
67372;SDS011;54257;54.496;18.412;2023-03-13T05:24:08;17.50;;;9.20;;
67372;SDS011;54257;54.496;18.412;2023-03-13T05:26:35;16.50;;;9.90;;
67372;SDS011;54257;54.496;18.412;2023-03-13T05:29:01;21.40;;;10.50;;
67372;SDS011;54257;54.496;18.412;2023-03-13T05:31:28;20.00;;;9.20;;
67372;SDS011;54257;54.496;18.412;2023-03-13T05:33:55;17.30;;;9.90;;
67372;SDS011;54257;54.496;18.412;2023-03-13T05:36:22;16.70;;;9.30;;
67372;SDS011;54257;54.496;18.412;2023-03-13T05:38:49;16.00;;;10.00;;
67372;SDS011;54257;54.496;18.412;2023-03-13T05:41:16;16.80;;;9.80;;
67372;SDS011;54257;54.496;18.412;2023-03-13T05:43:43;16.20;;;9.50;;
67372;SDS011;54257;54.496;18.412;2023-03-13T05:46:11;18.30;;;11.40;;
67372;SDS011;54257;54.496;18.412;2023-03-13T05:48:37;24.00;;;12.20;;
67372;SDS011;54257;54.496;18.412;2023-03-13T05:51:04;21.90;;;11.80;;
67372;SDS011;54257;54.496;18.412;2023-03-13T05:53:31;21.00;;;12.00;;
67372;SDS011;54257;54.496;18.412;2023-03-13T05:55:58;19.80;;;11.60;;
67372;SDS011;54257;54.496;18.412;2023-03-13T05:58:25;19.40;;;10.90;;
67372;SDS011;54257;54.496;18.412;2023-03-13T06:00:52;20.00;;;10.50;;
67372;SDS011;54257;54.496;18.412;2023-03-13T06:03:22;17.60;;;10.50;;
67372;SDS011;54257;54.496;18.412;2023-03-13T06:05:49;17.00;;;10.10;;
67372;SDS011;54257;54.496;18.412;2023-03-13T06:08:15;19.20;;;10.10;;
67372;SDS011;54257;54.496;18.412;2023-03-13T06:10:42;16.80;;;10.90;;
67372;SDS011;54257;54.496;18.412;2023-03-13T06:13:09;16.80;;;10.30;;
67372;SDS011;54257;54.496;18.412;2023-03-13T06:15:36;20.80;;;10.70;;
67372;SDS011;54257;54.496;18.412;2023-03-13T06:18:03;17.50;;;10.30;;
67372;SDS011;54257;54.496;18.412;2023-03-13T06:20:30;17.80;;;10.10;;
67372;SDS011;54257;54.496;18.412;2023-03-13T06:22:57;22.70;;;10.30;;
67372;SDS011;54257;54.496;18.412;2023-03-13T06:25:24;20.10;;;10.60;;
67372;SDS011;54257;54.496;18.412;2023-03-13T06:27:53;19.90;;;11.50;;
67372;SDS011;54257;54.496;18.412;2023-03-13T06:30:20;19.80;;;11.60;;
67372;SDS011;54257;54.496;18.412;2023-03-13T06:32:47;23.00;;;11.80;;
67372;SDS011;54257;54.496;18.412;2023-03-13T06:35:15;21.70;;;11.80;;
67372;SDS011;54257;54.496;18.412;2023-03-13T06:37:42;22.60;;;12.30;;
67372;SDS011;54257;54.496;18.412;2023-03-13T06:40:09;22.00;;;11.20;;
67372;SDS011;54257;54.496;18.412;2023-03-13T06:42:37;20.00;;;11.40;;
67372;SDS011;54257;54.496;18.412;2023-03-13T06:45:04;19.00;;;11.20;;
67372;SDS011;54257;54.496;18.412;2023-03-13T06:47:31;15.20;;;10.30;;
67372;SDS011;54257;54.496;18.412;2023-03-13T06:49:58;18.70;;;10.80;;
67372;SDS011;54257;54.496;18.412;2023-03-13T06:52:25;17.30;;;10.10;;
67372;SDS011;54257;54.496;18.412;2023-03-13T06:54:52;21.10;;;10.40;;
67372;SDS011;54257;54.496;18.412;2023-03-13T06:57:19;19.70;;;10.50;;
67372;SDS011;54257;54.496;18.412;2023-03-13T06:59:46;17.30;;;10.50;;
67372;SDS011;54257;54.496;18.412;2023-03-13T07:02:14;19.40;;;10.60;;
67372;SDS011;54257;54.496;18.412;2023-03-13T07:04:41;16.50;;;10.70;;
67372;SDS011;54257;54.496;18.412;2023-03-13T07:07:09;19.20;;;10.50;;
67372;SDS011;54257;54.496;18.412;2023-03-13T07:09:39;20.00;;;10.10;;
67372;SDS011;54257;54.496;18.412;2023-03-13T07:12:08;20.50;;;10.50;;
67372;SDS011;54257;54.496;18.412;2023-03-13T07:14:37;21.20;;;10.70;;
67372;SDS011;54257;54.496;18.412;2023-03-13T07:17:04;16.20;;;9.80;;
67372;SDS011;54257;54.496;18.412;2023-03-13T07:19:31;16.60;;;9.70;;
67372;SDS011;54257;54.496;18.412;2023-03-13T07:21:58;16.60;;;9.70;;
67372;SDS011;54257;54.496;18.412;2023-03-13T07:24:27;17.30;;;9.70;;
67372;SDS011;54257;54.496;18.412;2023-03-13T07:26:54;14.60;;;9.40;;
67372;SDS011;54257;54.496;18.412;2023-03-13T07:29:37;16.70;;;10.00;;
67372;SDS011;54257;54.496;18.412;2023-03-13T07:32:24;16.40;;;9.50;;
67372;SDS011;54257;54.496;18.412;2023-03-13T07:34:53;14.70;;;9.60;;
67372;SDS011;54257;54.496;18.412;2023-03-13T07:37:21;19.70;;;9.70;;
67372;SDS011;54257;54.496;18.412;2023-03-13T07:39:54;15.90;;;9.80;;
67372;SDS011;54257;54.496;18.412;2023-03-13T07:42:22;18.50;;;9.80;;
67372;SDS011;54257;54.496;18.412;2023-03-13T07:44:51;16.40;;;9.00;;
67372;SDS011;54257;54.496;18.412;2023-03-13T07:47:22;18.20;;;9.60;;
67372;SDS011;54257;54.496;18.412;2023-03-13T07:49:50;17.00;;;9.30;;
67372;SDS011;54257;54.496;18.412;2023-03-13T07:52:18;15.80;;;9.40;;
67372;SDS011;54257;54.496;18.412;2023-03-13T07:54:48;17.40;;;10.20;;
67372;SDS011;54257;54.496;18.412;2023-03-13T07:57:20;15.10;;;9.20;;
67372;SDS011;54257;54.496;18.412;2023-03-13T07:59:50;16.90;;;10.00;;
67372;SDS011;54257;54.496;18.412;2023-03-13T08:02:23;16.40;;;9.90;;
67372;SDS011;54257;54.496;18.412;2023-03-13T08:04:51;15.50;;;9.90;;
67372;SDS011;54257;54.496;18.412;2023-03-13T08:07:19;17.60;;;9.40;;
67372;SDS011;54257;54.496;18.412;2023-03-13T08:09:46;18.10;;;10.10;;
67372;SDS011;54257;54.496;18.412;2023-03-13T08:12:13;17.80;;;10.40;;
67372;SDS011;54257;54.496;18.412;2023-03-13T08:14:40;17.00;;;9.80;;
67372;SDS011;54257;54.496;18.412;2023-03-13T08:17:07;16.00;;;9.30;;
67372;SDS011;54257;54.496;18.412;2023-03-13T08:19:34;19.40;;;9.80;;
67372;SDS011;54257;54.496;18.412;2023-03-13T08:22:01;14.90;;;10.50;;
67372;SDS011;54257;54.496;18.412;2023-03-13T08:24:29;18.00;;;10.10;;
67372;SDS011;54257;54.496;18.412;2023-03-13T08:26:56;20.60;;;11.40;;
67372;SDS011;54257;54.496;18.412;2023-03-13T08:29:23;18.50;;;10.40;;
67372;SDS011;54257;54.496;18.412;2023-03-13T08:31:50;18.00;;;10.80;;
67372;SDS011;54257;54.496;18.412;2023-03-13T08:34:18;16.20;;;10.30;;
67372;SDS011;54257;54.496;18.412;2023-03-13T08:36:45;20.10;;;11.60;;
67372;SDS011;54257;54.496;18.412;2023-03-13T08:39:13;19.70;;;11.00;;
67372;SDS011;54257;54.496;18.412;2023-03-13T08:41:42;19.60;;;11.00;;
67372;SDS011;54257;54.496;18.412;2023-03-13T08:44:10;17.20;;;10.00;;
67372;SDS011;54257;54.496;18.412;2023-03-13T08:46:38;19.10;;;11.20;;
67372;SDS011;54257;54.496;18.412;2023-03-13T08:49:06;20.30;;;11.20;;
67372;SDS011;54257;54.496;18.412;2023-03-13T08:51:35;19.00;;;11.00;;
67372;SDS011;54257;54.496;18.412;2023-03-13T08:54:03;19.10;;;10.50;;
67372;SDS011;54257;54.496;18.412;2023-03-13T08:56:31;19.80;;;10.90;;
67372;SDS011;54257;54.496;18.412;2023-03-13T08:59:00;19.20;;;11.40;;
67372;SDS011;54257;54.496;18.412;2023-03-13T09:01:31;22.90;;;11.90;;
67372;SDS011;54257;54.496;18.412;2023-03-13T09:03:59;23.80;;;11.70;;
67372;SDS011;54257;54.496;18.412;2023-03-13T09:06:26;18.60;;;11.20;;
67372;SDS011;54257;54.496;18.412;2023-03-13T09:08:55;19.20;;;11.00;;
67372;SDS011;54257;54.496;18.412;2023-03-13T09:11:23;22.30;;;12.50;;
67372;SDS011;54257;54.496;18.412;2023-03-13T09:13:51;20.10;;;11.50;;
67372;SDS011;54257;54.496;18.412;2023-03-13T09:16:21;18.10;;;11.40;;
67372;SDS011;54257;54.496;18.412;2023-03-13T09:18:50;20.70;;;11.90;;
67372;SDS011;54257;54.496;18.412;2023-03-13T09:21:25;22.20;;;12.80;;
67372;SDS011;54257;54.496;18.412;2023-03-13T09:23:57;20.60;;;12.10;;
67372;SDS011;54257;54.496;18.412;2023-03-13T09:26:26;19.40;;;12.20;;
67372;SDS011;54257;54.496;18.412;2023-03-13T09:28:54;19.70;;;11.80;;
67372;SDS011;54257;54.496;18.412;2023-03-13T09:31:25;19.50;;;12.60;;
67372;SDS011;54257;54.496;18.412;2023-03-13T09:34:24;23.70;;;14.60;;
67372;SDS011;54257;54.496;18.412;2023-03-13T09:36:52;22.30;;;13.20;;
67372;SDS011;54257;54.496;18.412;2023-03-13T09:39:19;21.40;;;12.10;;
67372;SDS011;54257;54.496;18.412;2023-03-13T09:44:58;21.80;;;13.20;;
67372;SDS011;54257;54.496;18.412;2023-03-13T09:47:38;16.80;;;11.70;;
67372;SDS011;54257;54.496;18.412;2023-03-13T09:50:20;18.40;;;12.20;;
67372;SDS011;54257;54.496;18.412;2023-03-13T09:52:58;18.80;;;11.10;;
67372;SDS011;54257;54.496;18.412;2023-03-13T09:55:30;18.00;;;11.00;;
67372;SDS011;54257;54.496;18.412;2023-03-13T09:58:03;21.40;;;12.00;;
67372;SDS011;54257;54.496;18.412;2023-03-13T10:00:39;17.70;;;11.70;;
67372;SDS011;54257;54.496;18.412;2023-03-13T10:05:37;18.00;;;10.50;;
67372;SDS011;54257;54.496;18.412;2023-03-13T10:08:14;15.80;;;10.60;;
67372;SDS011;54257;54.496;18.412;2023-03-13T10:13:25;17.70;;;10.50;;
67372;SDS011;54257;54.496;18.412;2023-03-13T10:16:10;17.80;;;11.70;;
67372;SDS011;54257;54.496;18.412;2023-03-13T10:18:44;15.60;;;10.10;;
67372;SDS011;54257;54.496;18.412;2023-03-13T10:21:19;18.30;;;11.00;;
67372;SDS011;54257;54.496;18.412;2023-03-13T10:23:50;14.70;;;9.30;;
67372;SDS011;54257;54.496;18.412;2023-03-13T10:26:23;14.20;;;10.30;;
67372;SDS011;54257;54.496;18.412;2023-03-13T10:28:54;16.00;;;9.40;;
67372;SDS011;54257;54.496;18.412;2023-03-13T10:31:28;16.40;;;9.70;;
67372;SDS011;54257;54.496;18.412;2023-03-13T10:34:05;14.50;;;9.50;;
67372;SDS011;54257;54.496;18.412;2023-03-13T10:36:41;15.70;;;9.60;;
67372;SDS011;54257;54.496;18.412;2023-03-13T10:39:18;15.30;;;9.20;;
67372;SDS011;54257;54.496;18.412;2023-03-13T10:41:48;12.00;;;8.20;;
67372;SDS011;54257;54.496;18.412;2023-03-13T10:44:22;13.00;;;9.70;;
67372;SDS011;54257;54.496;18.412;2023-03-13T10:46:57;12.20;;;8.70;;
67372;SDS011;54257;54.496;18.412;2023-03-13T10:49:28;12.70;;;9.20;;
67372;SDS011;54257;54.496;18.412;2023-03-13T10:52:01;12.30;;;7.80;;
67372;SDS011;54257;54.496;18.412;2023-03-13T10:54:30;15.20;;;8.70;;
67372;SDS011;54257;54.496;18.412;2023-03-13T10:59:45;13.60;;;9.00;;
67372;SDS011;54257;54.496;18.412;2023-03-13T11:04:54;11.60;;;8.20;;
67372;SDS011;54257;54.496;18.412;2023-03-13T11:07:29;11.80;;;8.30;;
67372;SDS011;54257;54.496;18.412;2023-03-13T11:10:13;13.10;;;8.20;;
67372;SDS011;54257;54.496;18.412;2023-03-13T11:12:46;10.50;;;6.80;;
67372;SDS011;54257;54.496;18.412;2023-03-13T11:15:41;9.40;;;7.50;;
67372;SDS011;54257;54.496;18.412;2023-03-13T11:18:27;13.80;;;8.60;;
67372;SDS011;54257;54.496;18.412;2023-03-13T11:21:07;9.90;;;7.30;;
67372;SDS011;54257;54.496;18.412;2023-03-13T11:23:53;12.30;;;8.10;;
67372;SDS011;54257;54.496;18.412;2023-03-13T11:26:41;11.30;;;7.40;;
67372;SDS011;54257;54.496;18.412;2023-03-13T11:29:31;11.40;;;8.00;;
67372;SDS011;54257;54.496;18.412;2023-03-13T11:32:30;12.70;;;8.00;;
67372;SDS011;54257;54.496;18.412;2023-03-13T11:34:59;14.20;;;9.70;;
67372;SDS011;54257;54.496;18.412;2023-03-13T11:37:30;14.60;;;9.50;;
67372;SDS011;54257;54.496;18.412;2023-03-13T11:51:07;12.20;;;8.90;;
67372;SDS011;54257;54.496;18.412;2023-03-13T11:56:26;11.70;;;8.90;;
67372;SDS011;54257;54.496;18.412;2023-03-13T12:02:25;11.10;;;8.80;;
67372;SDS011;54257;54.496;18.412;2023-03-13T12:05:00;13.30;;;8.70;;
67372;SDS011;54257;54.496;18.412;2023-03-13T12:10:46;14.10;;;8.40;;
67372;SDS011;54257;54.496;18.412;2023-03-13T12:13:26;11.80;;;8.60;;
67372;SDS011;54257;54.496;18.412;2023-03-13T12:15:59;13.70;;;8.80;;
67372;SDS011;54257;54.496;18.412;2023-03-13T12:18:35;11.90;;;8.40;;
67372;SDS011;54257;54.496;18.412;2023-03-13T12:26:30;12.50;;;8.70;;
67372;SDS011;54257;54.496;18.412;2023-03-13T12:37:48;11.20;;;8.50;;
67372;SDS011;54257;54.496;18.412;2023-03-13T12:43:12;12.10;;;8.10;;
67372;SDS011;54257;54.496;18.412;2023-03-13T12:46:01;11.10;;;7.90;;
67372;SDS011;54257;54.496;18.412;2023-03-13T12:48:54;11.30;;;9.00;;
67372;SDS011;54257;54.496;18.412;2023-03-13T12:51:59;11.80;;;8.40;;
67372;SDS011;54257;54.496;18.412;2023-03-13T13:00:36;12.50;;;7.70;;
67372;SDS011;54257;54.496;18.412;2023-03-13T13:08:40;11.70;;;8.30;;
67372;SDS011;54257;54.496;18.412;2023-03-13T13:16:48;9.30;;;7.20;;
67372;SDS011;54257;54.496;18.412;2023-03-13T13:32:27;9.40;;;6.20;;
67372;SDS011;54257;54.496;18.412;2023-03-13T13:35:05;8.60;;;6.40;;
67372;SDS011;54257;54.496;18.412;2023-03-13T13:37:46;8.20;;;6.30;;
67372;SDS011;54257;54.496;18.412;2023-03-13T13:42:51;7.00;;;6.20;;
67372;SDS011;54257;54.496;18.412;2023-03-13T13:45:21;7.00;;;6.20;;
67372;SDS011;54257;54.496;18.412;2023-03-13T13:48:12;7.60;;;5.70;;
67372;SDS011;54257;54.496;18.412;2023-03-13T13:58:58;8.90;;;6.00;;
67372;SDS011;54257;54.496;18.412;2023-03-13T14:01:45;9.40;;;6.10;;
67372;SDS011;54257;54.496;18.412;2023-03-13T14:04:15;10.00;;;6.30;;
67372;SDS011;54257;54.496;18.412;2023-03-13T14:06:52;10.00;;;5.90;;
67372;SDS011;54257;54.496;18.412;2023-03-13T14:09:32;8.20;;;5.80;;
67372;SDS011;54257;54.496;18.412;2023-03-13T14:12:28;10.60;;;7.30;;
67372;SDS011;54257;54.496;18.412;2023-03-13T14:17:46;7.40;;;4.90;;
67372;SDS011;54257;54.496;18.412;2023-03-13T14:20:29;7.00;;;5.60;;
67372;SDS011;54257;54.496;18.412;2023-03-13T14:23:07;7.10;;;4.60;;
67372;SDS011;54257;54.496;18.412;2023-03-13T14:25:54;7.00;;;5.10;;
67372;SDS011;54257;54.496;18.412;2023-03-13T14:28:25;6.10;;;4.90;;
67372;SDS011;54257;54.496;18.412;2023-03-13T14:30:55;5.70;;;4.50;;
67372;SDS011;54257;54.496;18.412;2023-03-13T14:33:23;6.70;;;5.20;;
67372;SDS011;54257;54.496;18.412;2023-03-13T14:35:53;5.60;;;4.60;;
67372;SDS011;54257;54.496;18.412;2023-03-13T14:38:24;5.50;;;4.70;;
67372;SDS011;54257;54.496;18.412;2023-03-13T14:40:53;6.80;;;4.60;;
67372;SDS011;54257;54.496;18.412;2023-03-13T14:43:40;5.40;;;4.80;;
67372;SDS011;54257;54.496;18.412;2023-03-13T14:46:12;7.40;;;4.90;;
67372;SDS011;54257;54.496;18.412;2023-03-13T14:48:55;5.70;;;4.50;;
67372;SDS011;54257;54.496;18.412;2023-03-13T14:51:23;6.20;;;4.80;;
67372;SDS011;54257;54.496;18.412;2023-03-13T14:53:58;6.10;;;4.70;;
67372;SDS011;54257;54.496;18.412;2023-03-13T14:56:32;7.00;;;4.50;;
67372;SDS011;54257;54.496;18.412;2023-03-13T14:59:11;7.30;;;4.80;;
67372;SDS011;54257;54.496;18.412;2023-03-13T15:01:45;7.60;;;4.80;;
67372;SDS011;54257;54.496;18.412;2023-03-13T15:07:34;5.30;;;3.50;;
67372;SDS011;54257;54.496;18.412;2023-03-13T15:10:23;6.30;;;4.50;;
67372;SDS011;54257;54.496;18.412;2023-03-13T15:12:59;6.80;;;4.40;;
67372;SDS011;54257;54.496;18.412;2023-03-13T15:15:43;6.60;;;4.50;;
67372;SDS011;54257;54.496;18.412;2023-03-13T15:18:20;7.50;;;6.10;;
67372;SDS011;54257;54.496;18.412;2023-03-13T15:20:49;8.60;;;5.70;;
67372;SDS011;54257;54.496;18.412;2023-03-13T15:23:36;6.50;;;4.10;;
67372;SDS011;54257;54.496;18.412;2023-03-13T15:26:03;5.40;;;3.80;;
67372;SDS011;54257;54.496;18.412;2023-03-13T15:28:31;6.00;;;3.70;;
67372;SDS011;54257;54.496;18.412;2023-03-13T15:30:58;7.00;;;4.90;;
67372;SDS011;54257;54.496;18.412;2023-03-13T15:33:26;5.20;;;3.60;;
67372;SDS011;54257;54.496;18.412;2023-03-13T15:35:55;4.00;;;3.30;;
67372;SDS011;54257;54.496;18.412;2023-03-13T15:38:23;4.90;;;3.40;;
67372;SDS011;54257;54.496;18.412;2023-03-13T15:40:51;7.20;;;3.70;;
67372;SDS011;54257;54.496;18.412;2023-03-13T15:43:19;6.00;;;3.60;;
67372;SDS011;54257;54.496;18.412;2023-03-13T15:45:49;4.20;;;3.20;;
67372;SDS011;54257;54.496;18.412;2023-03-13T15:48:24;4.90;;;3.30;;
67372;SDS011;54257;54.496;18.412;2023-03-13T15:51:00;2.90;;;2.60;;
67372;SDS011;54257;54.496;18.412;2023-03-13T15:53:30;3.80;;;3.50;;
67372;SDS011;54257;54.496;18.412;2023-03-13T15:56:01;3.80;;;3.40;;
67372;SDS011;54257;54.496;18.412;2023-03-13T15:58:36;4.40;;;3.30;;
67372;SDS011;54257;54.496;18.412;2023-03-13T16:01:03;4.70;;;3.70;;
67372;SDS011;54257;54.496;18.412;2023-03-13T16:03:30;3.90;;;3.30;;
67372;SDS011;54257;54.496;18.412;2023-03-13T16:05:57;5.10;;;3.90;;
67372;SDS011;54257;54.496;18.412;2023-03-13T16:08:25;5.50;;;3.80;;
67372;SDS011;54257;54.496;18.412;2023-03-13T16:10:54;5.20;;;3.90;;
67372;SDS011;54257;54.496;18.412;2023-03-13T16:13:21;5.00;;;3.80;;
67372;SDS011;54257;54.496;18.412;2023-03-13T16:15:48;4.60;;;3.80;;
67372;SDS011;54257;54.496;18.412;2023-03-13T16:18:19;7.30;;;5.20;;
67372;SDS011;54257;54.496;18.412;2023-03-13T16:20:50;7.00;;;5.10;;
67372;SDS011;54257;54.496;18.412;2023-03-13T16:23:18;5.60;;;4.50;;
67372;SDS011;54257;54.496;18.412;2023-03-13T16:25:45;4.60;;;4.10;;
67372;SDS011;54257;54.496;18.412;2023-03-13T16:28:14;5.10;;;4.10;;